Wednesday, November 22, 2017, 11:37 AM EST
Back to Local

KHGR, Hagerstown Regional Airport

Location: Hagerstown, MD, United States Lat: 39.7
Local Time: 11:37 AM EST (16:37 GMT) Lon: -77.733
Time Zone: US/Eastern Elev: 705 ft

Show me the last for .
Show Decoded

2017-11-22 10:53 METAR KHGR 221553Z 30024G29KT 10SM BKN044 08/M02 A3005 RMK AO2 PK WND 30029/1551
                 SLP187 T00781017 =
2017-11-22 09:53 METAR KHGR 221453Z 31018G26KT 10SM FEW040 SCT055 09/01 A3003 RMK AO2 PK WND
                 31026/1451 SLP180 T00940006 51026 =
2017-11-22 08:53 METAR KHGR 221353Z 31015KT 10SM FEW090 10/02 A3000 RMK AO2 SLP171 T01000022 =
2017-11-22 07:53 METAR KHGR 221253Z 30013KT 10SM SCT090 09/01 A2998 RMK AO2 SLP164 T00940011 =
2017-11-22 06:53 METAR KHGR 221153Z 24005KT 10SM BKN100 10/02 A2995 RMK AO2 SLP152 T01000017
                 10106 20061 53012 =
2017-11-22 05:53 METAR KHGR 221053Z AUTO 24005KT 10SM BKN075 OVC090 10/02 A2993 RMK AO2 SLP147
                 T01000022 TSNO =
2017-11-22 04:53 METAR KHGR 220953Z AUTO 21005KT 10SM SCT050 OVC060 11/04 A2991 RMK AO2 SLP138
                 T01060039 TSNO =
2017-11-22 03:53 METAR KHGR 220853Z AUTO 00000KT 10SM BKN065 OVC080 08/04 A2991 RMK AO2 SLP140
                 T00780044 56006 TSNO =
2017-11-22 02:53 METAR KHGR 220753Z AUTO 00000KT 10SM FEW075 BKN090 07/04 A2991 RMK AO2 SLP140
                 T00720039 TSNO =
2017-11-22 01:53 METAR KHGR 220653Z AUTO 17005KT 10SM SCT075 OVC095 09/05 A2992 RMK AO2 SLP141
                 T00940050 TSNO =
2017-11-22 00:53 METAR KHGR 220553Z AUTO 17006KT 10SM BKN070 OVC080 09/05 A2993 RMK AO2 SLP147
                 T00940050 10111 20078 56015 TSNO =
2017-11-21 23:53 METAR KHGR 220453Z AUTO 00000KT 10SM CLR 09/04 A2994 RMK AO2 SLP150 T00890044
                 401390017 TSNO =
2017-11-21 22:53 METAR KHGR 220353Z AUTO 20004KT 10SM CLR 09/04 A2996 RMK AO2 SLP157 T00890039
                 TSNO =
2017-11-21 21:53 METAR KHGR 220253Z 20003KT 10SM CLR 08/04 A2998 RMK AO2 SLP164 T00830039 55001 =
2017-11-21 20:53 METAR KHGR 220153Z 19005KT 10SM CLR 09/04 A2998 RMK AO2 SLP164 T00890039 =
2017-11-21 19:53 METAR KHGR 220053Z 19004KT 10SM CLR 09/02 A2998 RMK AO2 SLP165 T00940022 =
2017-11-21 18:53 METAR KHGR 212353Z 17007KT 10SM CLR 11/02 A2998 RMK AO2 SLP166 T01060022 10139
                 20106 53005 =
2017-11-21 17:53 METAR KHGR 212253Z 16011KT 10SM CLR 12/01 A2996 RMK AO2 SLP160 T01220006 =
2017-11-21 16:53 METAR KHGR 212153Z 15007KT 10SM CLR 12/M01 A2996 RMK AO2 SLP159 T01171006 =
2017-11-21 15:53 METAR KHGR 212053Z 16008KT 10SM CLR 13/M01 A2997 RMK AO2 SLP160 T01331006 56014
                 =
2017-11-21 14:53 METAR KHGR 211953Z 16010KT 10SM CLR 13/M01 A2997 RMK AO2 SLP162 T01331011 =
2017-11-21 13:53 METAR KHGR 211853Z 17009KT 10SM CLR 12/M02 A2999 RMK AO2 SLP168 T01171017 =
2017-11-21 12:53 METAR KHGR 211753Z 16011KT 10SM CLR 11/M02 A3001 RMK AO2 SLP174 T01111022 10111
                 20028 56026 =
2017-11-21 11:53 METAR KHGR 211653Z 20007KT 10SM CLR 11/M02 A3003 RMK AO2 SLP181 T01111022 =

Support USWX by starting your Amazon purchase here.